createdAt,value
2022-09-23T00:01:09.048Z,100933.50
2022-09-23T00:03:38.564Z,100907.88
2022-09-23T00:06:11.201Z,100912.13
2022-09-23T00:08:38.896Z,100944.09
2022-09-23T00:11:12.954Z,100930.75
2022-09-23T00:13:41.611Z,100909.56
2022-09-23T00:16:11.439Z,100947.16
2022-09-23T00:18:38.403Z,100942.66
2022-09-23T00:21:11.016Z,100947.63
2022-09-23T00:23:38.819Z,100939.13
2022-09-23T00:26:07.795Z,100930.00
2022-09-23T00:28:34.858Z,100942.91
2022-09-23T00:31:07.129Z,100948.09
2022-09-23T00:33:34.056Z,100940.13
2022-09-23T00:36:02.039Z,100947.09
2022-09-23T00:38:29.014Z,100936.88
2022-09-23T00:40:56.721Z,100920.91
2022-09-23T00:43:38.557Z,100948.75
2022-09-23T00:46:08.474Z,100946.84
2022-09-23T00:48:37.252Z,100935.50
2022-09-23T00:51:07.698Z,100944.34
2022-09-23T00:53:34.814Z,100960.56
2022-09-23T00:56:04.616Z,100956.66
2022-09-23T00:58:34.368Z,100958.69
2022-09-23T01:01:02.546Z,100958.59
2022-09-23T01:03:30.708Z,100950.44
2022-09-23T01:05:58.196Z,100938.81
2022-09-23T01:08:27.077Z,100948.94
2022-09-23T01:11:06.251Z,100961.66
2022-09-23T01:13:52.252Z,100966.56
2022-09-23T01:16:28.100Z,100952.78
2022-09-23T01:19:17.231Z,100966.16
2022-09-23T01:22:05.203Z,100971.09
2022-09-23T01:25:09.147Z,100980.50
2022-09-23T01:27:54.581Z,100976.81
2022-09-23T01:30:45.179Z,100979.03
2022-09-23T01:33:33.683Z,100981.31
2022-09-23T01:36:24.063Z,100966.03
2022-09-23T01:39:15.246Z,100979.47
2022-09-23T01:42:05.826Z,100973.94
2022-09-23T01:44:36.369Z,100976.47
2022-09-23T01:47:11.097Z,100957.03
2022-09-23T01:50:37.203Z,100975.06
2022-09-23T01:53:14.805Z,100975.44
2022-09-23T01:55:48.736Z,100968.56
2022-09-23T01:58:22.037Z,100965.03
2022-09-23T02:00:56.104Z,100976.59
2022-09-23T02:03:28.057Z,100969.81
2022-09-23T02:06:10.095Z,100961.25
2022-09-23T02:09:08.050Z,100965.19
2022-09-23T02:11:36.899Z,100954.00
2022-09-23T02:14:10.967Z,100969.69
2022-09-23T02:16:43.833Z,100957.06
2022-09-23T02:19:27.241Z,100968.81
2022-09-23T02:22:08.212Z,100968.44
2022-09-23T02:24:38.334Z,100962.06
2022-09-23T02:27:24.178Z,100974.97
2022-09-23T02:29:54.040Z,100943.97
2022-09-23T02:32:32.413Z,100953.34
2022-09-23T02:35:15.867Z,100961.19
2022-09-23T02:37:48.352Z,100966.63
2022-09-23T02:40:24.557Z,100965.63
2022-09-23T02:43:19.963Z,100955.91
2022-09-23T02:45:47.475Z,100906.88
2022-09-23T02:48:20.394Z,100928.44
2022-09-23T02:50:47.938Z,100923.72
2022-09-23T02:53:18.411Z,100960.44
2022-09-23T02:55:45.084Z,100946.16
2022-09-23T02:58:14.130Z,100949.41
2022-09-23T03:00:47.122Z,100958.97
2022-09-23T03:03:34.844Z,100955.19
2022-09-23T03:06:09.063Z,100945.63
2022-09-23T03:08:51.034Z,100944.47
2022-09-23T03:11:18.509Z,100934.50
2022-09-23T03:14:00.239Z,100952.19
2022-09-23T03:16:53.879Z,100912.78
2022-09-23T03:19:27.060Z,100958.22
2022-09-23T03:22:07.597Z,100961.03
2022-09-23T03:24:36.832Z,100954.81
2022-09-23T03:27:13.971Z,100962.06
2022-09-23T03:29:47.967Z,100956.56
2022-09-23T03:32:17.746Z,100962.69
2022-09-23T03:34:48.573Z,100954.28
2022-09-23T03:37:27.184Z,100938.41
2022-09-23T03:40:22.021Z,100957.22
2022-09-23T03:42:51.502Z,100906.59
2022-09-23T03:45:23.932Z,100894.72
2022-09-23T03:47:50.664Z,100914.09
2022-09-23T03:50:21.368Z,100938.28
2022-09-23T03:52:49.760Z,100938.38
2022-09-23T03:55:17.976Z,100954.75
2022-09-23T03:57:45.350Z,100923.53
2022-09-23T04:00:13.006Z,100956.41
2022-09-23T04:02:40.490Z,100946.13
2022-09-23T04:05:09.119Z,100952.47
2022-09-23T04:07:35.807Z,100936.06
2022-09-23T04:10:02.477Z,100934.91
2022-09-23T04:12:29.123Z,100939.06
2022-09-23T04:14:55.869Z,100917.22
2022-09-23T04:17:22.563Z,100924.34
2022-09-23T04:19:49.185Z,100920.53
2022-09-23T04:22:16.024Z,100934.06
2022-09-23T04:24:42.727Z,100916.47
2022-09-23T04:27:09.614Z,100931.81
2022-09-23T04:29:36.226Z,100928.38
2022-09-23T04:32:02.959Z,100913.91
2022-09-23T04:34:29.602Z,100927.28
2022-09-23T04:36:56.375Z,100920.47
2022-09-23T04:39:23.052Z,100934.06
2022-09-23T04:41:49.779Z,100950.88
2022-09-23T04:44:16.505Z,100921.03
2022-09-23T04:46:46.870Z,100945.13
2022-09-23T04:49:14.537Z,100932.88
2022-09-23T04:51:43.999Z,100949.28
2022-09-23T04:54:12.266Z,100880.63
2022-09-23T04:56:39.938Z,100950.19
2022-09-23T04:59:08.054Z,100950.88
2022-09-23T05:01:36.583Z,100949.16
2022-09-23T05:04:07.307Z,100939.31
2022-09-23T05:06:35.213Z,100961.31
2022-09-23T05:09:04.388Z,100949.38
2022-09-23T05:11:31.686Z,100942.72
2022-09-23T05:13:58.744Z,100964.09
2022-09-23T05:16:26.218Z,100937.13
2022-09-23T05:18:53.353Z,100881.63
2022-09-23T05:21:22.608Z,100958.47
2022-09-23T05:23:55.280Z,100968.06
2022-09-23T05:26:28.189Z,100964.59
2022-09-23T05:28:55.548Z,100962.97
2022-09-23T05:31:24.894Z,100962.84
2022-09-23T05:34:02.891Z,100958.81
2022-09-23T05:36:36.948Z,100955.50
2022-09-23T05:39:05.103Z,100957.09
2022-09-23T05:41:31.736Z,100952.06
2022-09-23T05:43:59.831Z,100926.63
2022-09-23T05:46:29.080Z,100978.44
2022-09-23T05:49:08.158Z,100965.31
2022-09-23T05:51:35.882Z,100959.53
2022-09-23T05:54:04.578Z,100983.44
2022-09-23T05:56:32.806Z,100972.53
2022-09-23T05:59:01.593Z,100989.91
2022-09-23T06:01:34.491Z,100978.81
2022-09-23T06:04:03.855Z,100989.03
2022-09-23T06:06:33.038Z,100989.97
2022-09-23T06:09:00.813Z,100991.50
2022-09-23T06:11:30.934Z,100974.91
2022-09-23T06:14:02.729Z,100992.06
2022-09-23T06:16:32.640Z,101001.22
2022-09-23T06:19:06.911Z,100990.69
2022-09-23T06:21:36.777Z,100992.16
2022-09-23T06:24:04.055Z,100970.91
2022-09-23T06:26:34.159Z,100986.78
2022-09-23T06:29:02.888Z,100992.13
2022-09-23T06:31:33.254Z,101002.78
2022-09-23T06:34:09.534Z,100992.22
2022-09-23T06:36:43.042Z,100993.31
2022-09-23T06:39:14.052Z,100990.38
2022-09-23T06:41:40.821Z,100980.28
2022-09-23T06:44:07.756Z,100949.41
2022-09-23T06:46:35.740Z,100948.63
2022-09-23T06:49:04.017Z,101012.78
2022-09-23T06:51:30.929Z,100926.09
2022-09-23T06:53:57.708Z,100967.97
2022-09-23T06:56:25.067Z,101014.13
2022-09-23T06:58:53.483Z,101005.97
2022-09-23T07:01:20.502Z,100937.56
2022-09-23T07:03:48.640Z,100977.88
2022-09-23T07:06:16.241Z,100962.91
2022-09-23T07:08:45.111Z,100954.25
2022-09-23T07:11:13.612Z,101013.81
2022-09-23T07:13:42.806Z,100996.28
2022-09-23T07:16:11.825Z,100992.72
2022-09-23T07:18:40.132Z,100997.97
2022-09-23T07:21:19.102Z,101004.09
2022-09-23T07:23:52.739Z,100986.28
2022-09-23T07:26:21.505Z,100998.44
2022-09-23T07:28:52.983Z,100996.72
2022-09-23T07:31:34.434Z,100995.69
2022-09-23T07:34:08.537Z,101022.72
2022-09-23T07:36:37.757Z,101025.94
2022-09-23T07:39:04.801Z,100968.81
2022-09-23T07:41:33.447Z,101028.69
2022-09-23T07:44:01.333Z,100983.19
2022-09-23T07:46:30.885Z,101027.91
2022-09-23T07:48:58.170Z,101022.66
2022-09-23T07:51:37.581Z,101015.72
2022-09-23T07:54:10.715Z,101023.63
2022-09-23T07:56:40.139Z,100997.44
2022-09-23T07:59:09.952Z,101022.38
2022-09-23T08:13:02.437Z,101012.06
2022-09-23T08:26:20.948Z,101010.56
2022-09-23T08:42:40.666Z,101028.06
2022-09-23T08:45:14.576Z,101012.56
2022-09-23T08:47:52.720Z,101028.91
2022-09-23T08:50:22.727Z,100991.97
2022-09-23T08:52:57.995Z,101004.78
2022-09-23T08:55:38.918Z,100998.94
2022-09-23T08:58:35.365Z,101035.13
2022-09-23T09:01:14.957Z,101042.56
2022-09-23T09:04:06.545Z,101044.72
2022-09-23T09:06:53.439Z,101003.88
2022-09-23T09:15:12.846Z,101008.34
2022-09-23T09:18:06.991Z,100991.28
2022-09-23T09:44:19.408Z,101036.38
2022-09-23T09:47:06.568Z,101018.13
2022-09-23T09:49:59.157Z,101051.69
2022-09-23T09:52:29.930Z,100982.69
2022-09-23T09:55:17.873Z,101052.91
2022-09-23T09:58:05.846Z,101053.00
2022-09-23T10:00:43.221Z,101028.44
2022-09-23T10:03:13.174Z,101044.09
2022-09-23T10:05:46.432Z,101046.28
2022-09-23T10:08:29.187Z,101014.50
2022-09-23T10:10:59.122Z,101044.34
2022-09-23T10:13:28.160Z,101029.75
2022-09-23T10:15:56.383Z,100984.06
2022-09-23T10:44:23.889Z,101041.81
2022-09-23T12:16:22.755Z,100901.25
2022-09-23T12:28:15.983Z,100937.16
2022-09-23T12:44:41.981Z,100892.69
2022-09-23T12:55:36.800Z,101004.78
2022-09-23T13:01:09.893Z,100923.44
2022-09-23T13:03:55.651Z,100868.88
2022-09-23T13:06:40.990Z,100896.69
2022-09-23T13:09:17.092Z,101013.44
2022-09-23T13:11:48.133Z,100977.88
2022-09-23T13:14:26.755Z,100993.47
2022-09-23T13:16:55.494Z,100994.00
2022-09-23T13:19:28.500Z,101015.00
2022-09-23T13:22:09.274Z,101009.16
2022-09-23T13:24:39.695Z,101012.47
2022-09-23T13:27:33.542Z,101012.06
2022-09-23T13:30:27.055Z,101014.72
2022-09-23T13:33:01.547Z,101013.53
2022-09-23T13:35:50.980Z,100990.91
2022-09-23T13:38:21.166Z,101015.66
2022-09-23T13:40:49.353Z,101007.16
2022-09-23T13:43:27.676Z,101026.50
2022-09-23T13:45:55.477Z,100997.78
2022-09-23T13:48:25.839Z,101009.41
2022-09-23T13:50:56.430Z,101010.56
2022-09-23T13:53:23.076Z,100998.91
2022-09-23T13:56:02.196Z,101037.41
2022-09-23T13:58:31.680Z,101016.78
2022-09-23T14:00:58.849Z,100980.09
2022-09-23T14:03:37.122Z,101024.69
2022-09-23T14:06:15.539Z,100965.63
2022-09-23T14:08:46.206Z,100997.22
2022-09-23T14:11:40.378Z,101012.91
2022-09-23T14:14:07.980Z,100984.63
2022-09-23T14:16:40.940Z,100996.41
2022-09-23T14:19:17.722Z,100986.34
2022-09-23T14:21:49.259Z,101016.81
2022-09-23T14:24:18.235Z,101020.97
2022-09-23T14:27:06.960Z,101032.28
2022-09-23T14:29:36.489Z,100991.84
2022-09-23T14:32:11.577Z,101003.81
2022-09-23T14:35:02.912Z,100982.84
2022-09-23T14:37:48.356Z,101034.47
2022-09-23T14:40:19.132Z,100979.31
2022-09-23T14:42:52.872Z,101011.13
2022-09-23T14:45:25.819Z,101034.38
2022-09-23T14:48:32.985Z,101031.50
2022-09-23T14:51:10.814Z,101011.63
2022-09-23T14:53:43.202Z,100967.34
2022-09-23T14:56:25.267Z,100994.25
2022-09-23T14:58:56.327Z,100914.78
2022-09-23T15:01:28.395Z,101040.66
2022-09-23T15:03:56.892Z,100956.94
2022-09-23T15:09:08.774Z,100964.66
2022-09-23T15:11:36.289Z,100972.53
2022-09-23T15:14:33.152Z,100943.31
2022-09-23T15:16:55.387Z,101006.25
2022-09-23T15:19:24.335Z,100974.94
2022-09-23T15:21:54.650Z,100930.97
2022-09-23T15:24:34.765Z,101015.28
2022-09-23T15:27:02.443Z,100916.84
2022-09-23T15:29:30.095Z,100956.09
2022-09-23T15:31:57.596Z,100995.63
2022-09-23T15:34:27.441Z,100911.97
2022-09-23T15:36:54.998Z,100955.75
2022-09-23T15:39:36.039Z,101058.09
2022-09-23T15:47:25.335Z,100972.69
2022-09-23T15:49:52.827Z,100967.03
2022-09-23T15:52:24.018Z,100999.16
2022-09-23T15:54:51.686Z,101040.28
2022-09-23T15:57:19.674Z,101035.84
2022-09-23T15:59:46.799Z,101022.56
2022-09-23T16:02:23.375Z,101001.00
2022-09-23T16:04:51.724Z,101036.34
2022-09-23T16:07:20.009Z,100983.25
2022-09-23T16:09:46.870Z,101033.09
2022-09-23T16:12:13.948Z,101034.19
2022-09-23T16:14:40.721Z,101025.78
2022-09-23T16:17:09.644Z,101056.34
2022-09-23T16:19:36.400Z,101049.44
2022-09-23T16:22:04.884Z,101025.94
2022-09-23T16:24:31.713Z,101057.16
2022-09-23T16:27:01.092Z,101048.34
2022-09-23T16:29:28.046Z,101025.88
2022-09-23T16:31:55.818Z,101051.06
2022-09-23T16:34:22.678Z,100996.31
2022-09-23T16:36:49.664Z,101076.31
2022-09-23T16:39:16.455Z,101011.38
2022-09-23T16:41:44.021Z,101105.78
2022-09-23T16:44:12.684Z,101064.13
2022-09-23T16:46:43.057Z,101056.28
2022-09-23T16:49:12.338Z,101084.13
2022-09-23T16:51:40.240Z,101057.81
2022-09-23T16:54:11.129Z,101103.56
2022-09-23T16:56:45.313Z,101059.59
2022-09-23T16:59:13.988Z,101076.03
2022-09-23T17:01:59.107Z,101027.75
2022-09-23T17:04:26.075Z,101081.59
2022-09-23T17:06:53.637Z,101042.25
2022-09-23T17:09:23.417Z,101098.19
2022-09-23T17:12:04.334Z,101088.81
2022-09-23T17:14:34.956Z,101084.31
2022-09-23T17:17:01.802Z,101051.16
2022-09-23T17:19:28.918Z,101033.28
2022-09-23T17:21:55.711Z,101043.69
2022-09-23T17:24:22.915Z,101042.81
2022-09-23T17:26:52.980Z,101058.75
2022-09-23T17:29:20.771Z,101046.28
2022-09-23T17:31:48.605Z,101101.78
2022-09-23T17:34:17.060Z,101048.28
2022-09-23T17:36:45.851Z,101009.38
2022-09-23T17:39:12.850Z,101031.16
2022-09-23T17:41:49.157Z,101091.31
2022-09-23T17:44:18.234Z,101050.91
2022-09-23T17:46:45.486Z,101085.34
2022-09-23T17:49:12.367Z,101050.84
2022-09-23T17:51:39.108Z,101074.91
2022-09-23T17:54:06.580Z,101117.03
2022-09-23T17:56:34.181Z,101082.00
2022-09-23T17:59:02.179Z,101094.84
2022-09-23T18:01:29.741Z,101095.59
2022-09-23T18:04:00.492Z,101119.25
2022-09-23T18:06:31.758Z,101113.28
2022-09-23T18:09:01.793Z,101074.59
2022-09-23T18:11:30.758Z,101110.69
2022-09-23T18:14:00.867Z,101077.25
2022-09-23T18:16:39.658Z,101115.13
2022-09-23T18:19:08.635Z,101092.31
2022-09-23T18:21:41.551Z,101114.97
2022-09-23T18:24:31.320Z,101085.44
2022-09-23T18:27:00.010Z,101117.78
2022-09-23T18:29:27.184Z,101133.75
2022-09-23T18:31:54.069Z,101106.31
2022-09-23T18:34:20.922Z,101081.75
2022-09-23T18:36:47.692Z,101109.88
2022-09-23T18:39:14.834Z,101100.59
2022-09-23T18:41:41.554Z,101160.56
2022-09-23T18:44:09.016Z,101147.00
2022-09-23T18:46:35.903Z,101135.03
2022-09-23T18:49:21.237Z,101097.59
2022-09-23T18:51:54.730Z,101125.50
2022-09-23T18:54:23.174Z,101142.88
2022-09-23T18:56:52.674Z,101146.13
2022-09-23T18:59:23.966Z,101140.84
2022-09-23T19:01:51.576Z,101124.25
2022-09-23T19:04:20.668Z,101141.56
2022-09-23T19:06:47.770Z,101145.00
2022-09-23T19:09:16.703Z,101149.31
2022-09-23T19:11:44.451Z,101144.66
2022-09-23T19:14:12.004Z,101189.91
2022-09-23T19:16:40.340Z,101189.03
2022-09-23T19:19:07.329Z,101177.03
2022-09-23T19:21:34.730Z,101175.47
2022-09-23T19:24:04.420Z,101195.03
2022-09-23T19:26:39.621Z,101196.34
2022-09-23T19:29:08.504Z,101190.81
2022-09-23T19:31:40.347Z,101195.94
2022-09-23T19:34:15.751Z,101159.16
2022-09-23T19:36:45.446Z,101186.03
2022-09-23T19:39:18.059Z,101195.63
2022-09-23T19:41:45.858Z,101193.13
2022-09-23T19:44:12.939Z,101201.47
2022-09-23T19:46:42.879Z,101205.50
2022-09-23T19:49:11.136Z,101199.31
2022-09-23T19:51:38.978Z,101203.16
2022-09-23T19:54:07.403Z,101212.19
2022-09-23T19:56:34.796Z,101194.22
2022-09-23T19:59:03.172Z,101200.00
2022-09-23T20:01:32.248Z,101217.91
2022-09-23T20:03:59.515Z,101213.19
2022-09-23T20:06:30.422Z,101178.50
2022-09-23T20:08:59.584Z,101171.44
2022-09-23T20:11:28.653Z,101226.34
2022-09-23T20:14:01.976Z,101196.56
2022-09-23T20:16:32.423Z,101197.69
2022-09-23T20:19:00.946Z,101238.63
2022-09-23T20:21:29.373Z,101233.84
2022-09-23T20:23:57.216Z,101226.06
2022-09-23T20:26:42.751Z,101211.28
2022-09-23T20:29:11.005Z,101224.91
2022-09-23T20:31:38.086Z,101219.97
2022-09-23T20:34:07.191Z,101215.03
2022-09-23T20:36:35.448Z,101227.53
2022-09-23T20:39:06.046Z,101194.97
2022-09-23T20:41:36.792Z,101241.00
2022-09-23T20:44:06.386Z,101210.63
2022-09-23T20:46:33.300Z,101177.53
2022-09-23T20:49:01.557Z,101183.50
2022-09-23T20:51:28.194Z,101202.16
2022-09-23T20:53:55.118Z,101182.41
2022-09-23T20:56:22.028Z,101217.34
2022-09-23T20:58:50.468Z,101234.44
2022-09-23T21:01:18.294Z,101249.41
2022-09-23T21:03:47.673Z,101230.59
2022-09-23T21:06:17.586Z,101208.75
2022-09-23T21:08:45.129Z,101213.19
2022-09-23T21:11:16.792Z,101244.78
2022-09-23T21:13:51.214Z,101233.44
2022-09-23T21:16:21.550Z,101218.72
2022-09-23T21:18:50.561Z,101254.50
2022-09-23T21:21:19.794Z,101254.56
2022-09-23T21:23:47.832Z,101248.88
2022-09-23T21:26:19.462Z,101246.19
2022-09-23T21:28:51.434Z,101249.50
2022-09-23T21:31:25.536Z,101246.19
2022-09-23T21:33:59.349Z,101249.97
2022-09-23T21:36:28.196Z,101256.38
2022-09-23T21:38:56.144Z,101255.75
2022-09-23T21:41:23.774Z,101259.28
2022-09-23T21:43:50.962Z,101239.94
2022-09-23T21:46:22.923Z,101259.66
2022-09-23T21:48:53.394Z,101257.09
2022-09-23T21:51:25.675Z,101268.13
2022-09-23T21:53:55.004Z,101241.47
2022-09-23T21:56:27.375Z,101247.63
2022-09-23T21:58:55.423Z,101268.94
2022-09-23T22:01:23.661Z,101255.03
2022-09-23T22:03:57.886Z,101270.16
2022-09-23T22:06:27.730Z,101263.97
2022-09-23T22:08:59.874Z,101257.19
2022-09-23T22:11:52.972Z,101263.31
2022-09-23T22:14:23.643Z,101260.25
2022-09-23T22:16:50.777Z,101258.72
2022-09-23T22:19:17.459Z,101236.47
2022-09-23T22:21:45.775Z,101203.25
2022-09-23T22:24:13.290Z,101276.34
2022-09-23T22:26:42.428Z,101263.91
2022-09-23T22:29:33.036Z,101258.47
2022-09-23T22:32:19.805Z,101246.44
2022-09-23T22:34:50.451Z,101256.00
2022-09-23T22:37:25.788Z,101255.91
2022-09-23T22:39:53.225Z,101260.66
2022-09-23T22:42:22.638Z,101260.59
2022-09-23T22:44:50.141Z,101266.50
2022-09-23T22:47:18.147Z,101251.78
2022-09-23T22:49:46.267Z,101263.09
2022-09-23T22:52:14.022Z,101254.13
2022-09-23T22:54:40.732Z,101253.50
2022-09-23T22:57:08.323Z,101251.75
2022-09-23T22:59:37.392Z,101256.50
2022-09-23T23:02:05.263Z,101257.56
2022-09-23T23:04:32.233Z,101265.94
2022-09-23T23:06:59.009Z,101258.94
2022-09-23T23:09:25.855Z,101276.41
2022-09-23T23:11:52.850Z,101264.41
2022-09-23T23:14:19.820Z,101264.75
2022-09-23T23:16:46.888Z,101228.81
2022-09-23T23:19:17.131Z,101276.91
2022-09-23T23:21:45.658Z,101274.97
2022-09-23T23:24:22.094Z,101268.00
2022-09-23T23:26:50.075Z,101281.25
2022-09-23T23:29:19.079Z,101274.59
2022-09-23T23:31:46.123Z,101274.66
2022-09-23T23:34:19.029Z,101285.06
2022-09-23T23:36:46.809Z,101283.72
2022-09-23T23:39:14.052Z,101261.94
2022-09-23T23:41:41.753Z,101277.13
2022-09-23T23:44:09.067Z,101275.56
2022-09-23T23:46:37.399Z,101285.13
2022-09-23T23:49:04.875Z,101265.44
2022-09-23T23:51:31.791Z,101269.22
2022-09-23T23:53:59.895Z,101292.44
2022-09-23T23:56:27.587Z,101295.16
2022-09-23T23:58:59.907Z,101296.03
